Time;durP1;ratioP1;P1;durP2;ratioP2;P2;SDS_P1;SDS_P2;PMS_P1;PMS_P2;Temp;Humidity;BMP_temperature;BMP_pressure;BME280_temperature;BME280_humidity;BME280_pressure;Samples;Min_cycle;Max_cycle;Signal;HPM_P1;HPM_P2
2023/01/26 00:01:21;;;;;;;;;;;0.20;99.90;;;;;;5071201;28;19924;-76
2023/01/26 00:03:47;;;;;;;;;;;0.20;99.90;;;;;;5064781;28;20207;-78
2023/01/26 00:06:14;;;;;;;;;;;0.20;99.90;;;;;;5069044;28;19916;-75
2023/01/26 00:08:40;;;;;;;;;;;0.20;99.90;;;;;;5068485;28;19912;-76
2023/01/26 00:11:07;;;;;;;;;;;0.20;99.90;;;;;;5068826;28;19915;-77
2023/01/26 00:13:33;;;;;;;;;;;0.20;99.90;;;;;;5068254;28;19913;-74
2023/01/26 00:15:58;;;;;;;;;;;0.20;99.90;;;;;;5068087;28;19923;-76
2023/01/26 00:18:24;;;;;;;;;;;0.20;99.90;;;;;;5065000;28;19913;-78
2023/01/26 00:21:00;;;;;;;;;;;0.20;99.90;;;;;;5064031;28;19908;-76
2023/01/26 00:23:26;;;;;;;;;;;0.20;99.90;;;;;;5069477;28;20006;-76
2023/01/26 00:25:51;;;;;;;;;;;0.20;99.90;;;;;;5066409;28;20007;-77
2023/01/26 00:28:17;;;;;;;;;;;0.20;99.90;;;;;;5047051;28;19928;-76
2023/01/26 00:30:42;;;;;;;;;;;0.20;99.90;;;;;;5062650;28;19920;-76
2023/01/26 00:33:08;;;;;;;;;;;0.20;99.90;;;;;;5065835;28;19920;-77
2023/01/26 00:35:33;;;;;;;;;;;0.30;99.90;;;;;;5073874;28;19915;-76
2023/01/26 00:37:59;;;;;;;;;;;0.20;99.90;;;;;;5071859;28;19914;-77
2023/01/26 00:40:24;;;;;;;;;;;0.20;99.90;;;;;;5069181;28;19908;-80
2023/01/26 00:42:53;;;;;;;;;;;0.20;99.90;;;;;;5075220;28;20211;-77
2023/01/26 00:45:19;;;;;;;;;;;0.20;99.90;;;;;;5072283;28;19917;-73
2023/01/26 00:47:44;;;;;;;;;;;0.20;99.90;;;;;;5069256;28;20382;-78
2023/01/26 00:50:10;;;;;;;;;;;0.20;99.90;;;;;;5063821;28;19916;-78
2023/01/26 00:52:36;;;;;;;;;;;0.20;99.90;;;;;;5071810;28;19913;-80
2023/01/26 00:55:01;;;;;;;;;;;0.20;99.90;;;;;;5072584;28;20259;-77
2023/01/26 00:57:27;;;;;;;;;;;0.20;99.90;;;;;;5067378;28;19915;-77
2023/01/26 00:59:52;;;;;;;;;;;0.20;99.90;;;;;;5069417;28;20306;-77
2023/01/26 01:02:18;;;;;;;;;;;0.20;99.90;;;;;;5072445;28;19924;-78
2023/01/26 01:04:43;;;;;;;;;;;0.20;99.90;;;;;;5062327;28;19913;-79
2023/01/26 01:07:09;;;;;;;;;;;0.20;99.90;;;;;;5072746;28;19916;-76
2023/01/26 01:09:34;;;;;;;;;;;0.20;99.90;;;;;;5071350;28;19908;-77
2023/01/26 01:12:00;;;;;;;;;;;0.20;99.90;;;;;;5074158;28;19932;-77
2023/01/26 01:14:25;;;;;;;;;;;0.20;99.90;;;;;;5074557;28;20082;-78
2023/01/26 01:16:51;;;;;;;;;;;0.20;99.90;;;;;;5070740;28;20007;-77
2023/01/26 01:19:17;;;;;;;;;;;0.20;99.90;;;;;;5064710;28;19912;-78
2023/01/26 01:21:43;;;;;;;;;;;0.20;99.90;;;;;;5061781;28;19919;-77
2023/01/26 01:24:09;;;;;;;;;;;0.20;99.90;;;;;;5072816;28;19918;-77
2023/01/26 01:26:34;;;;;;;;;;;0.20;99.90;;;;;;5070215;28;19974;-77
2023/01/26 01:29:00;;;;;;;;;;;0.20;99.90;;;;;;5063294;28;19908;-77
2023/01/26 01:31:28;;;;;;;;;;;0.20;99.90;;;;;;5073570;28;19908;-77
2023/01/26 01:33:53;;;;;;;;;;;0.20;99.90;;;;;;5071928;28;19923;-77
2023/01/26 01:36:19;;;;;;;;;;;0.20;99.90;;;;;;5059554;28;20003;-76
2023/01/26 01:38:45;;;;;;;;;;;0.20;99.90;;;;;;5067286;28;20295;-77
2023/01/26 01:41:11;;;;;;;;;;;0.20;99.90;;;;;;5061745;28;19916;-78
2023/01/26 01:43:37;;;;;;;;;;;0.20;99.90;;;;;;5071607;28;19912;-78
2023/01/26 01:46:10;;;;;;;;;;;0.30;99.90;;;;;;5070306;28;19987;-77
2023/01/26 01:48:51;;;;;;;;;;;0.30;99.90;;;;;;5073604;28;19912;-76
2023/01/26 01:51:33;;;;;;;;;;;0.30;99.90;;;;;;5073095;28;19908;-78
2023/01/26 01:54:01;;;;;;;;;;;0.30;99.90;;;;;;5074861;28;19919;-77
2023/01/26 01:56:28;;;;;;;;;;;0.30;99.90;;;;;;5069832;28;19908;-78
2023/01/26 01:58:56;;;;;;;;;;;0.30;99.90;;;;;;5067945;28;19912;-77
2023/01/26 02:01:21;;;;;;;;;;;0.30;99.90;;;;;;5068911;28;19921;-78
2023/01/26 02:03:48;;;;;;;;;;;0.30;99.90;;;;;;5071749;28;20289;-78
2023/01/26 02:06:17;;;;;;;;;;;0.30;99.90;;;;;;5055353;28;19944;-77
2023/01/26 02:08:48;;;;;;;;;;;0.30;99.90;;;;;;5070794;28;19915;-78
2023/01/26 02:11:16;;;;;;;;;;;0.30;99.90;;;;;;5072558;28;20249;-78
2023/01/26 02:13:43;;;;;;;;;;;0.30;99.90;;;;;;5071385;28;20195;-78
2023/01/26 02:16:09;;;;;;;;;;;0.30;99.90;;;;;;5068437;28;19909;-78
2023/01/26 02:18:35;;;;;;;;;;;0.30;99.90;;;;;;5070550;28;19939;-78
2023/01/26 02:21:02;;;;;;;;;;;0.20;99.90;;;;;;5065046;28;19995;-78
2023/01/26 02:23:30;;;;;;;;;;;0.30;99.90;;;;;;5071492;28;19909;-77
2023/01/26 02:26:06;;;;;;;;;;;0.30;99.90;;;;;;5074018;28;19948;-77
2023/01/26 02:28:31;;;;;;;;;;;0.30;99.90;;;;;;5072799;28;19904;-77
2023/01/26 02:30:57;;;;;;;;;;;0.30;99.90;;;;;;5071899;28;19923;-78
2023/01/26 02:33:24;;;;;;;;;;;0.30;99.90;;;;;;5069349;28;19956;-77
2023/01/26 02:35:49;;;;;;;;;;;0.30;99.90;;;;;;5058641;28;19913;-78
2023/01/26 02:38:20;;;;;;;;;;;0.30;99.90;;;;;;5067899;28;19915;-77
2023/01/26 02:40:52;;;;;;;;;;;0.30;99.90;;;;;;5071699;28;20460;-79
2023/01/26 02:43:18;;;;;;;;;;;0.30;99.90;;;;;;5049822;28;19923;-78
2023/01/26 02:45:43;;;;;;;;;;;0.30;99.90;;;;;;5069982;28;19916;-77
2023/01/26 02:48:09;;;;;;;;;;;0.30;99.90;;;;;;5059425;28;19912;-77
2023/01/26 02:50:34;;;;;;;;;;;0.30;99.90;;;;;;5066711;28;19913;-77
2023/01/26 02:53:00;;;;;;;;;;;0.30;99.90;;;;;;5070435;28;19954;-77
2023/01/26 02:55:27;;;;;;;;;;;0.30;99.90;;;;;;5075642;28;19931;-77
2023/01/26 02:58:00;;;;;;;;;;;0.30;99.90;;;;;;5072507;28;19913;-77
2023/01/26 03:00:27;;;;;;;;;;;0.30;99.90;;;;;;5072221;28;19916;-77
2023/01/26 03:02:55;;;;;;;;;;;0.30;99.90;;;;;;5073635;28;20425;-77
2023/01/26 03:05:20;;;;;;;;;;;0.30;99.90;;;;;;5066725;28;19912;-77
2023/01/26 03:07:46;;;;;;;;;;;0.30;99.90;;;;;;5075800;28;20218;-77
2023/01/26 03:10:12;;;;;;;;;;;0.30;99.90;;;;;;5070432;28;19916;-76
2023/01/26 03:12:37;;;;;;;;;;;0.30;99.90;;;;;;5071201;28;19916;-76
2023/01/26 03:17:48;;;;;;;;;;;0.30;99.90;;;;;;5069746;28;20255;-77
2023/01/26 03:28:26;;;;;;;;;;;0.40;99.90;;;;;;5070252;28;20210;-76
2023/01/26 03:30:54;;;;;;;;;;;0.40;99.90;;;;;;5072648;28;19912;-72
2023/01/26 03:33:19;;;;;;;;;;;0.40;99.90;;;;;;5073911;28;19958;-76
2023/01/26 03:35:45;;;;;;;;;;;0.40;99.90;;;;;;5073155;28;19916;-76
2023/01/26 03:38:11;;;;;;;;;;;0.40;99.90;;;;;;5073348;28;19908;-76
2023/01/26 03:57:02;;;;;;;;;;;0.50;99.90;;;;;;5070979;28;19916;-76
2023/01/26 03:59:37;;;;;;;;;;;0.50;99.90;;;;;;5072182;28;19908;-76
2023/01/26 04:10:16;;;;;;;;;;;0.50;99.90;;;;;;5067382;28;19991;-76
2023/01/26 04:12:42;;;;;;;;;;;0.60;99.90;;;;;;5067343;28;20003;-76
2023/01/26 04:23:20;;;;;;;;;;;0.70;99.90;;;;;;5075377;28;19953;-76
2023/01/26 04:25:46;;;;;;;;;;;0.70;99.90;;;;;;5072217;28;20245;-76
2023/01/26 04:28:12;;;;;;;;;;;0.60;99.90;;;;;;5074067;28;20386;-76
2023/01/26 04:30:38;;;;;;;;;;;0.70;99.90;;;;;;5048350;28;20337;-75
2023/01/26 04:33:03;;;;;;;;;;;0.70;99.90;;;;;;5072065;28;20218;-76
2023/01/26 04:35:29;;;;;;;;;;;0.70;99.90;;;;;;5073246;28;19912;-74
2023/01/26 04:37:55;;;;;;;;;;;0.70;99.90;;;;;;5074593;28;19913;-75
2023/01/26 04:40:20;;;;;;;;;;;0.70;99.90;;;;;;5074357;28;20001;-76
2023/01/26 04:42:46;;;;;;;;;;;0.70;99.90;;;;;;5063795;28;19915;-76
2023/01/26 04:45:12;;;;;;;;;;;0.70;99.90;;;;;;5069419;28;19916;-73
2023/01/26 04:47:37;;;;;;;;;;;0.70;99.90;;;;;;5073772;28;19908;-76
2023/01/26 04:50:03;;;;;;;;;;;0.70;99.90;;;;;;5075157;28;19965;-76
2023/01/26 04:52:29;;;;;;;;;;;0.70;99.90;;;;;;5074805;28;19908;-76
2023/01/26 04:54:54;;;;;;;;;;;0.80;99.90;;;;;;5060237;28;19919;-75
2023/01/26 04:57:22;;;;;;;;;;;0.80;99.90;;;;;;5069306;28;19991;-75
2023/01/26 04:59:47;;;;;;;;;;;0.80;99.90;;;;;;5059916;28;19915;-76
2023/01/26 05:02:13;;;;;;;;;;;0.90;99.90;;;;;;5072410;28;19920;-75
2023/01/26 05:04:38;;;;;;;;;;;0.80;99.90;;;;;;5074894;28;19912;-76
2023/01/26 05:07:04;;;;;;;;;;;0.80;99.90;;;;;;5070719;28;19909;-76
2023/01/26 05:09:30;;;;;;;;;;;0.80;99.90;;;;;;5072501;28;19927;-75
2023/01/26 05:12:32;;;;;;;;;;;0.80;99.90;;;;;;5066954;28;19909;-76
2023/01/26 05:14:41;;;;;;;;;;;0.80;99.90;;;;;;5070463;28;20246;-76
2023/01/26 05:17:07;;;;;;;;;;;0.90;99.90;;;;;;5068726;28;19912;-77
2023/01/26 05:19:32;;;;;;;;;;;0.90;99.90;;;;;;5069481;28;20396;-76
2023/01/26 05:21:58;;;;;;;;;;;0.90;99.90;;;;;;5070962;28;19948;-77
2023/01/26 05:24:23;;;;;;;;;;;0.90;99.90;;;;;;5064568;28;20011;-77
2023/01/26 05:27:19;;;;;;;;;;;0.80;99.90;;;;;;5065548;28;19913;-76
2023/01/26 05:29:34;;;;;;;;;;;0.90;99.90;;;;;;5065326;28;19944;-76
2023/01/26 05:32:00;;;;;;;;;;;0.90;99.90;;;;;;5068012;28;19959;-76
2023/01/26 05:34:26;;;;;;;;;;;0.90;99.90;;;;;;5071593;28;19958;-78
2023/01/26 05:36:51;;;;;;;;;;;0.90;99.90;;;;;;5070480;28;19916;-78
2023/01/26 05:39:17;;;;;;;;;;;0.90;99.90;;;;;;5056925;28;19978;-77
2023/01/26 05:41:42;;;;;;;;;;;1.00;99.90;;;;;;5064937;28;20399;-75
2023/01/26 05:44:08;;;;;;;;;;;0.90;99.90;;;;;;5074699;28;19916;-78
2023/01/26 05:46:33;;;;;;;;;;;1.00;99.90;;;;;;5070200;28;19908;-73
2023/01/26 05:48:59;;;;;;;;;;;1.00;99.90;;;;;;5061080;28;19916;-77
2023/01/26 05:51:24;;;;;;;;;;;1.00;99.90;;;;;;5072634;28;19926;-77
2023/01/26 05:53:50;;;;;;;;;;;1.10;99.90;;;;;;5069946;28;19917;-76
2023/01/26 05:56:15;;;;;;;;;;;1.10;99.90;;;;;;5065156;28;20292;-73
2023/01/26 05:58:41;;;;;;;;;;;1.10;99.90;;;;;;5069909;28;19908;-77
2023/01/26 06:01:07;;;;;;;;;;;1.10;99.90;;;;;;5061731;28;19916;-78
2023/01/26 06:03:33;;;;;;;;;;;1.10;99.90;;;;;;5066602;28;20306;-74
2023/01/26 06:05:58;;;;;;;;;;;1.10;99.90;;;;;;5074343;28;19913;-78
2023/01/26 06:08:24;;;;;;;;;;;1.10;99.90;;;;;;5057953;28;19920;-77
2023/01/26 06:10:49;;;;;;;;;;;1.20;99.90;;;;;;5064106;28;19920;-76
2023/01/26 06:13:15;;;;;;;;;;;1.20;99.90;;;;;;5068658;28;19908;-76
2023/01/26 06:15:40;;;;;;;;;;;1.20;99.90;;;;;;5073191;28;19958;-77
2023/01/26 06:18:06;;;;;;;;;;;1.20;99.90;;;;;;5074107;28;19958;-72
2023/01/26 06:20:31;;;;;;;;;;;1.20;99.90;;;;;;5073450;28;19912;-78
2023/01/26 06:23:03;;;;;;;;;;;1.20;99.90;;;;;;5077253;28;20305;-75
2023/01/26 06:25:28;;;;;;;;;;;1.20;99.90;;;;;;5076951;28;19956;-77
2023/01/26 06:27:57;;;;;;;;;;;1.30;99.90;;;;;;5078329;28;19966;-76
2023/01/26 06:30:22;;;;;;;;;;;1.20;99.90;;;;;;5071680;28;19951;-76
2023/01/26 06:32:48;;;;;;;;;;;1.20;99.90;;;;;;5075326;28;19954;-73
2023/01/26 06:35:13;;;;;;;;;;;1.20;99.90;;;;;;5076440;28;19951;-73
2023/01/26 06:37:39;;;;;;;;;;;1.20;99.90;;;;;;5075851;28;19938;-73
2023/01/26 06:40:05;;;;;;;;;;;1.20;99.90;;;;;;5073571;28;19909;-72
2023/01/26 06:42:30;;;;;;;;;;;1.20;99.90;;;;;;5074627;28;19958;-73
2023/01/26 06:44:57;;;;;;;;;;;1.20;99.90;;;;;;5073713;28;19990;-76
2023/01/26 06:47:23;;;;;;;;;;;1.20;99.90;;;;;;5077712;28;19912;-72
2023/01/26 06:49:48;;;;;;;;;;;1.10;99.90;;;;;;5073555;28;20429;-73
2023/01/26 06:52:20;;;;;;;;;;;1.10;99.90;;;;;;5071841;28;19908;-73
2023/01/26 06:54:47;;;;;;;;;;;1.00;99.90;;;;;;5074079;28;20006;-74
2023/01/26 06:57:12;;;;;;;;;;;1.10;99.90;;;;;;5070815;28;19916;-72
2023/01/26 06:59:38;;;;;;;;;;;1.10;99.90;;;;;;5072282;28;19954;-72
2023/01/26 07:02:05;;;;;;;;;;;1.20;99.90;;;;;;5069855;28;19970;-77
2023/01/26 07:04:31;;;;;;;;;;;1.10;99.90;;;;;;5076390;28;19916;-77
2023/01/26 07:06:56;;;;;;;;;;;1.20;99.90;;;;;;5072543;28;19923;-78
2023/01/26 07:09:22;;;;;;;;;;;1.10;99.90;;;;;;5057483;28;20211;-77
2023/01/26 07:11:47;;;;;;;;;;;1.10;99.90;;;;;;5067181;28;19912;-75
2023/01/26 07:14:13;;;;;;;;;;;1.10;99.90;;;;;;5072438;28;19912;-78
2023/01/26 07:16:38;;;;;;;;;;;1.20;99.90;;;;;;5062999;28;19950;-76
2023/01/26 07:19:04;;;;;;;;;;;1.40;99.90;;;;;;5069963;28;20215;-77
2023/01/26 07:21:29;;;;;;;;;;;1.50;99.90;;;;;;5075972;28;20355;-77
2023/01/26 07:23:55;;;;;;;;;;;1.70;99.90;;;;;;5068088;28;19908;-79
2023/01/26 07:26:21;;;;;;;;;;;2.00;99.90;;;;;;5067734;28;19912;-77
2023/01/26 07:28:46;;;;;;;;;;;2.50;99.90;;;;;;5069061;28;20318;-78
2023/01/26 07:31:12;;;;;;;;;;;2.90;99.90;;;;;;5073494;28;20203;-72
2023/01/26 07:33:38;;;;;;;;;;;3.30;99.90;;;;;;5077070;28;19916;-78
2023/01/26 07:36:03;;;;;;;;;;;3.50;99.90;;;;;;5072132;28;19917;-73
2023/01/26 07:38:29;;;;;;;;;;;3.70;99.90;;;;;;5070601;28;19916;-74
2023/01/26 07:40:55;;;;;;;;;;;3.80;99.90;;;;;;5072625;28;19918;-71
2023/01/26 07:43:21;;;;;;;;;;;4.00;99.90;;;;;;5074356;28;19908;-78
2023/01/26 07:45:51;;;;;;;;;;;4.30;99.90;;;;;;5071899;28;20321;-80
2023/01/26 07:48:17;;;;;;;;;;;4.40;99.90;;;;;;5068893;28;20371;-79
2023/01/26 07:50:44;;;;;;;;;;;4.50;99.90;;;;;;5076252;28;19995;-71
2023/01/26 07:53:11;;;;;;;;;;;4.50;99.90;;;;;;5072232;28;19991;-77
2023/01/26 07:55:37;;;;;;;;;;;4.60;99.90;;;;;;5073184;28;20016;-75
2023/01/26 07:58:03;;;;;;;;;;;4.60;99.90;;;;;;5069618;28;20003;-71
2023/01/26 08:00:28;;;;;;;;;;;4.70;99.90;;;;;;5074827;28;20020;-80
2023/01/26 08:02:54;;;;;;;;;;;4.60;99.90;;;;;;5064287;28;19920;-75
2023/01/26 08:05:19;;;;;;;;;;;4.70;99.90;;;;;;5062405;28;19921;-75
2023/01/26 08:07:45;;;;;;;;;;;4.80;99.90;;;;;;5070919;28;19908;-76
2023/01/26 08:10:12;;;;;;;;;;;4.90;99.90;;;;;;5070344;28;19908;-80
2023/01/26 08:12:37;;;;;;;;;;;4.90;99.90;;;;;;5072491;28;19943;-76
2023/01/26 08:15:03;;;;;;;;;;;4.90;99.90;;;;;;5071821;28;19959;-76
2023/01/26 08:17:29;;;;;;;;;;;5.00;99.90;;;;;;5062698;28;19944;-72
2023/01/26 08:19:54;;;;;;;;;;;5.00;99.90;;;;;;5068665;28;20685;-77
2023/01/26 08:22:20;;;;;;;;;;;5.00;99.90;;;;;;5072460;28;19954;-81
2023/01/26 08:24:45;;;;;;;;;;;5.00;99.90;;;;;;5073858;28;20011;-79
2023/01/26 08:27:11;;;;;;;;;;;5.00;99.90;;;;;;5075120;28;19915;-81
2023/01/26 08:29:36;;;;;;;;;;;5.00;99.90;;;;;;5068609;28;20246;-81
2023/01/26 08:32:02;;;;;;;;;;;5.00;99.90;;;;;;5073196;28;20312;-73
2023/01/26 08:34:28;;;;;;;;;;;5.10;99.90;;;;;;5073473;28;19912;-79
2023/01/26 08:36:53;;;;;;;;;;;5.10;99.90;;;;;;5072753;28;19920;-80
2023/01/26 08:39:19;;;;;;;;;;;5.10;99.90;;;;;;5069244;28;19920;-78
2023/01/26 08:41:45;;;;;;;;;;;5.10;99.90;;;;;;5072909;28;19909;-77
2023/01/26 08:44:11;;;;;;;;;;;5.10;99.90;;;;;;5070825;28;19995;-80
2023/01/26 08:46:36;;;;;;;;;;;5.10;99.90;;;;;;5073849;28;20310;-79
2023/01/26 08:49:02;;;;;;;;;;;5.10;99.90;;;;;;5072921;28;19916;-80
2023/01/26 08:51:27;;;;;;;;;;;4.90;99.90;;;;;;5072997;28;19912;-81
2023/01/26 08:53:53;;;;;;;;;;;4.90;99.90;;;;;;5071892;28;20013;-82
2023/01/26 08:56:19;;;;;;;;;;;4.80;99.90;;;;;;5071559;28;19912;-80
2023/01/26 08:58:45;;;;;;;;;;;4.80;99.90;;;;;;5073576;28;19931;-80
2023/01/26 09:01:11;;;;;;;;;;;4.80;99.90;;;;;;5068550;28;19930;-79
2023/01/26 09:03:37;;;;;;;;;;;4.70;99.90;;;;;;5069423;28;19914;-79
2023/01/26 09:06:03;;;;;;;;;;;4.70;99.90;;;;;;5073162;28;19916;-80
2023/01/26 09:08:29;;;;;;;;;;;4.70;99.90;;;;;;5072915;28;19908;-80
2023/01/26 09:10:55;;;;;;;;;;;4.70;99.90;;;;;;5070367;28;20215;-79
2023/01/26 09:13:21;;;;;;;;;;;4.70;99.90;;;;;;5072354;28;19935;-78
2023/01/26 09:15:46;;;;;;;;;;;4.80;99.90;;;;;;5072265;28;20394;-81
2023/01/26 09:18:12;;;;;;;;;;;4.70;99.90;;;;;;5063672;28;19920;-80
2023/01/26 09:20:37;;;;;;;;;;;4.80;99.90;;;;;;5073096;28;20291;-73
2023/01/26 09:23:03;;;;;;;;;;;4.70;99.90;;;;;;5059384;28;19999;-73
2023/01/26 09:25:29;;;;;;;;;;;4.70;99.90;;;;;;5065891;28;20219;-81
2023/01/26 09:27:55;;;;;;;;;;;4.70;99.90;;;;;;5066634;28;19957;-80
2023/01/26 09:30:20;;;;;;;;;;;4.70;99.90;;;;;;5070911;28;20016;-80
2023/01/26 09:32:46;;;;;;;;;;;4.70;99.90;;;;;;5064778;28;19995;-83
2023/01/26 09:35:12;;;;;;;;;;;4.70;99.90;;;;;;5068436;28;19920;-81
2023/01/26 09:37:37;;;;;;;;;;;4.70;99.90;;;;;;5066379;28;19913;-81
2023/01/26 09:40:03;;;;;;;;;;;4.60;99.90;;;;;;5067475;28;20192;-80
2023/01/26 09:42:43;;;;;;;;;;;4.60;99.90;;;;;;5073020;28;20186;-77
2023/01/26 09:45:12;;;;;;;;;;;4.50;99.90;;;;;;5069147;28;19919;-80
2023/01/26 09:48:12;;;;;;;;;;;4.60;99.90;;;;;;5069721;28;20214;-80
2023/01/26 09:50:54;;;;;;;;;;;4.60;99.90;;;;;;5002203;28;20316;-80
2023/01/26 09:53:27;;;;;;;;;;;4.70;99.90;;;;;;5065652;28;20391;-78
2023/01/26 09:55:53;;;;;;;;;;;4.80;99.90;;;;;;5069008;28;20360;-81
2023/01/26 09:58:39;;;;;;;;;;;4.90;99.90;;;;;;5068662;28;19934;-81
2023/01/26 10:01:06;;;;;;;;;;;4.90;99.90;;;;;;5065680;28;19920;-81
2023/01/26 10:03:40;;;;;;;;;;;5.10;99.90;;;;;;5073342;28;19908;-80
2023/01/26 10:06:15;;;;;;;;;;;5.20;99.90;;;;;;5063256;28;19916;-80
2023/01/26 10:08:42;;;;;;;;;;;5.30;99.90;;;;;;5067489;28;19909;-77
2023/01/26 10:11:17;;;;;;;;;;;5.50;99.90;;;;;;5073168;28;19920;-78
2023/01/26 10:13:47;;;;;;;;;;;5.60;99.90;;;;;;5071308;28;19920;-79
2023/01/26 10:16:13;;;;;;;;;;;5.70;99.90;;;;;;5073550;28;19958;-80
2023/01/26 10:18:41;;;;;;;;;;;5.80;99.90;;;;;;5066876;28;19959;-81
2023/01/26 10:21:08;;;;;;;;;;;5.90;99.90;;;;;;5062227;28;19912;-78
2023/01/26 10:23:34;;;;;;;;;;;5.90;99.90;;;;;;5050562;28;20291;-78
2023/01/26 10:26:11;;;;;;;;;;;6.00;99.90;;;;;;5069242;28;19998;-81
2023/01/26 10:28:37;;;;;;;;;;;6.10;99.90;;;;;;5060546;28;19959;-81
2023/01/26 10:31:05;;;;;;;;;;;6.20;99.90;;;;;;5065812;28;19912;-81
2023/01/26 10:33:32;;;;;;;;;;;6.20;99.90;;;;;;5068117;28;19908;-79
2023/01/26 10:35:58;;;;;;;;;;;6.30;99.90;;;;;;5070750;28;19913;-83
2023/01/26 10:38:42;;;;;;;;;;;6.40;99.90;;;;;;5062213;28;20390;-81
2023/01/26 10:41:15;;;;;;;;;;;6.30;99.90;;;;;;5071874;28;19912;-81
2023/01/26 10:43:42;;;;;;;;;;;6.40;99.90;;;;;;5069611;28;19919;-80
2023/01/26 10:46:26;;;;;;;;;;;6.20;99.90;;;;;;5071792;28;20307;-83
2023/01/26 10:48:53;;;;;;;;;;;6.30;99.90;;;;;;5061634;28;19909;-76
2023/01/26 10:51:29;;;;;;;;;;;6.40;99.90;;;;;;5065948;28;20306;-78
2023/01/26 10:54:13;;;;;;;;;;;6.50;99.90;;;;;;5066541;28;19982;-82
2023/01/26 10:56:49;;;;;;;;;;;6.50;99.90;;;;;;5061783;28;19909;-82
2023/01/26 10:59:21;;;;;;;;;;;6.50;99.90;;;;;;5066738;28;19927;-82
2023/01/26 11:01:54;;;;;;;;;;;6.70;99.90;;;;;;5065881;28;20008;-82
2023/01/26 11:04:21;;;;;;;;;;;6.60;99.90;;;;;;5058655;28;19916;-82
2023/01/26 11:06:46;;;;;;;;;;;6.60;99.90;;;;;;5072469;28;19931;-84
2023/01/26 11:09:38;;;;;;;;;;;6.50;99.90;;;;;;5073469;28;20314;-81
2023/01/26 11:12:04;;;;;;;;;;;6.50;99.90;;;;;;5069689;28;19908;-79
2023/01/26 11:14:31;;;;;;;;;;;6.60;99.90;;;;;;5057895;28;19917;-73
2023/01/26 11:17:03;;;;;;;;;;;6.60;99.90;;;;;;5070413;28;20328;-81
2023/01/26 11:19:47;;;;;;;;;;;6.70;99.90;;;;;;5073416;28;19948;-80
2023/01/26 11:22:33;;;;;;;;;;;6.80;99.90;;;;;;5072370;28;19917;-80
2023/01/26 11:25:18;;;;;;;;;;;7.00;99.90;;;;;;5031744;28;20006;-80
2023/01/26 11:27:50;;;;;;;;;;;7.00;99.90;;;;;;5057047;28;19916;-82
2023/01/26 11:30:51;;;;;;;;;;;7.10;99.90;;;;;;5071851;28;19969;-82
2023/01/26 11:33:28;;;;;;;;;;;7.10;99.90;;;;;;5007585;28;20333;-79
2023/01/26 11:36:23;;;;;;;;;;;7.10;99.90;;;;;;5008043;28;20551;-83
2023/01/26 11:38:59;;;;;;;;;;;7.20;99.90;;;;;;4996011;28;19928;-73
2023/01/26 11:41:57;;;;;;;;;;;7.40;99.90;;;;;;5006284;28;19953;-80
2023/01/26 11:44:23;;;;;;;;;;;7.40;99.90;;;;;;4978903;28;19921;-70
2023/01/26 11:46:51;;;;;;;;;;;7.30;99.90;;;;;;4991938;28;20240;-79
2023/01/26 11:49:17;;;;;;;;;;;7.20;99.90;;;;;;4997137;28;20314;-82
2023/01/26 11:51:49;;;;;;;;;;;7.30;99.90;;;;;;5005462;28;20041;-71
2023/01/26 11:54:27;;;;;;;;;;;7.40;99.90;;;;;;5012585;28;19917;-71
2023/01/26 11:56:52;;;;;;;;;;;7.70;99.90;;;;;;5011942;28;19913;-71
2023/01/26 11:59:22;;;;;;;;;;;7.70;99.90;;;;;;5008785;28;19913;-79
2023/01/26 12:01:50;;;;;;;;;;;7.60;99.90;;;;;;5014625;28;20665;-71
2023/01/26 12:04:21;;;;;;;;;;;7.50;99.90;;;;;;5011117;28;19999;-86
2023/01/26 12:06:54;;;;;;;;;;;7.50;99.90;;;;;;5007208;28;19909;-84
2023/01/26 12:09:25;;;;;;;;;;;7.40;99.90;;;;;;5070844;28;19913;-71
2023/01/26 12:11:51;;;;;;;;;;;7.40;99.90;;;;;;5073578;28;19904;-78
2023/01/26 12:14:16;;;;;;;;;;;7.40;99.90;;;;;;5071292;28;19999;-83
2023/01/26 12:16:42;;;;;;;;;;;7.30;99.90;;;;;;5075070;28;19916;-82
2023/01/26 12:19:07;;;;;;;;;;;7.40;99.90;;;;;;5069686;28;20378;-82
2023/01/26 12:21:35;;;;;;;;;;;7.30;99.90;;;;;;5067489;28;19912;-71
2023/01/26 12:24:02;;;;;;;;;;;7.20;99.90;;;;;;5067420;28;20285;-83
2023/01/26 12:26:30;;;;;;;;;;;7.20;99.90;;;;;;5062767;28;19924;-83
2023/01/26 12:29:08;;;;;;;;;;;7.10;99.90;;;;;;5067563;28;19954;-70
2023/01/26 12:31:47;;;;;;;;;;;7.10;99.90;;;;;;5072133;28;19920;-84
2023/01/26 12:34:13;;;;;;;;;;;7.10;99.90;;;;;;5071212;28;19916;-71
2023/01/26 12:36:45;;;;;;;;;;;7.10;99.90;;;;;;5065413;28;20180;-83
2023/01/26 12:39:33;;;;;;;;;;;7.20;99.90;;;;;;5067481;28;19912;-71
2023/01/26 12:42:01;;;;;;;;;;;7.20;99.90;;;;;;5070566;28;19908;-85
2023/01/26 12:44:29;;;;;;;;;;;7.20;99.90;;;;;;5071826;28;20394;-70
2023/01/26 12:46:58;;;;;;;;;;;7.20;99.90;;;;;;5073185;28;19912;-85
2023/01/26 12:49:30;;;;;;;;;;;7.20;99.90;;;;;;5068530;28;19947;-71
2023/01/26 12:52:00;;;;;;;;;;;7.00;99.90;;;;;;5069855;28;20222;-81
2023/01/26 12:54:35;;;;;;;;;;;6.90;99.90;;;;;;5073049;28;19998;-81
2023/01/26 12:57:03;;;;;;;;;;;6.80;99.90;;;;;;5065059;28;19915;-71
2023/01/26 12:59:28;;;;;;;;;;;6.70;99.90;;;;;;5073155;28;19924;-83
2023/01/26 13:01:54;;;;;;;;;;;6.80;99.90;;;;;;5067286;28;19921;-82
2023/01/26 13:04:20;;;;;;;;;;;7.10;99.90;;;;;;5070365;28;19966;-78
2023/01/26 13:06:59;;;;;;;;;;;7.30;99.90;;;;;;5074942;28;19912;-80
2023/01/26 13:09:25;;;;;;;;;;;7.20;99.90;;;;;;5073065;28;19912;-84
2023/01/26 13:11:58;;;;;;;;;;;7.00;99.90;;;;;;5074108;28;19913;-70
2023/01/26 13:14:33;;;;;;;;;;;6.90;99.90;;;;;;5072926;28;19951;-82
2023/01/26 13:17:14;;;;;;;;;;;6.70;99.90;;;;;;5070430;28;19959;-83
2023/01/26 13:19:42;;;;;;;;;;;6.60;99.90;;;;;;5067711;28;19919;-74
2023/01/26 13:22:31;;;;;;;;;;;6.70;99.90;;;;;;5074645;28;19958;-70
2023/01/26 13:25:16;;;;;;;;;;;6.80;99.90;;;;;;5065019;28;20298;-82
2023/01/26 13:27:53;;;;;;;;;;;6.80;99.90;;;;;;5067311;28;19909;-80
2023/01/26 13:30:24;;;;;;;;;;;6.90;99.90;;;;;;5069855;28;19919;-78
2023/01/26 13:32:51;;;;;;;;;;;7.00;99.90;;;;;;5070316;28;19912;-73
2023/01/26 13:35:21;;;;;;;;;;;7.10;99.90;;;;;;5074248;28;19934;-82
2023/01/26 13:37:49;;;;;;;;;;;7.10;99.90;;;;;;5063382;28;19916;-81
2023/01/26 13:40:21;;;;;;;;;;;7.20;99.90;;;;;;5062994;28;19944;-78
2023/01/26 13:42:47;;;;;;;;;;;7.30;99.90;;;;;;5059621;28;20317;-82
2023/01/26 13:45:42;;;;;;;;;;;7.30;99.90;;;;;;5060521;28;19995;-69
2023/01/26 13:48:17;;;;;;;;;;;7.10;99.90;;;;;;5056703;28;19962;-69
2023/01/26 13:50:44;;;;;;;;;;;6.90;99.90;;;;;;5073174;28;19912;-82
2023/01/26 13:53:32;;;;;;;;;;;6.80;99.90;;;;;;5066896;28;19913;-72
2023/01/26 13:55:58;;;;;;;;;;;6.70;99.90;;;;;;5066558;28;19987;-80
2023/01/26 13:58:24;;;;;;;;;;;6.70;99.90;;;;;;5072660;28;19916;-81
2023/01/26 14:00:58;;;;;;;;;;;6.70;99.90;;;;;;5071344;28;19927;-83
2023/01/26 14:03:24;;;;;;;;;;;6.60;99.90;;;;;;5072041;28;19908;-85
2023/01/26 14:05:55;;;;;;;;;;;6.70;99.90;;;;;;5075147;28;19938;-75
2023/01/26 14:08:21;;;;;;;;;;;6.70;99.90;;;;;;5074590;28;19915;-79
2023/01/26 14:10:47;;;;;;;;;;;6.80;99.90;;;;;;5068758;28;19939;-72
2023/01/26 14:13:20;;;;;;;;;;;6.80;99.90;;;;;;5073204;28;19947;-86
2023/01/26 14:15:54;;;;;;;;;;;6.80;99.90;;;;;;5073936;28;19943;-77
2023/01/26 14:18:20;;;;;;;;;;;6.80;99.90;;;;;;5071927;28;19908;-83
2023/01/26 14:20:45;;;;;;;;;;;6.80;99.90;;;;;;5071530;28;19954;-81
2023/01/26 14:23:17;;;;;;;;;;;6.80;99.90;;;;;;5064174;28;19912;-84
2023/01/26 14:25:55;;;;;;;;;;;6.70;99.90;;;;;;5067588;28;19936;-84
2023/01/26 14:28:21;;;;;;;;;;;6.70;99.90;;;;;;5063826;28;19912;-83
2023/01/26 14:30:50;;;;;;;;;;;6.70;99.90;;;;;;5070740;28;20211;-81
2023/01/26 14:33:16;;;;;;;;;;;6.70;99.90;;;;;;5064629;28;20562;-88
2023/01/26 14:35:42;;;;;;;;;;;6.70;99.90;;;;;;5065086;28;19915;-85
2023/01/26 14:38:11;;;;;;;;;;;6.70;99.90;;;;;;5068166;28;20266;-81
2023/01/26 14:40:50;;;;;;;;;;;6.70;99.90;;;;;;5071666;28;20284;-83
2023/01/26 14:43:16;;;;;;;;;;;6.70;99.90;;;;;;5057569;28;19915;-80
2023/01/26 14:45:53;;;;;;;;;;;6.70;99.90;;;;;;5072888;28;19916;-78
2023/01/26 14:48:20;;;;;;;;;;;6.70;99.90;;;;;;5067134;28;19912;-77
2023/01/26 14:50:46;;;;;;;;;;;6.70;99.90;;;;;;5063094;28;19908;-80
2023/01/26 14:53:23;;;;;;;;;;;6.60;99.90;;;;;;5069081;28;19916;-69
2023/01/26 14:55:49;;;;;;;;;;;6.60;99.90;;;;;;5070439;28;19951;-69
2023/01/26 14:58:19;;;;;;;;;;;6.50;99.90;;;;;;5071613;28;19908;-84
2023/01/26 15:00:48;;;;;;;;;;;6.50;99.90;;;;;;5066440;28;19966;-86
2023/01/26 15:03:20;;;;;;;;;;;6.40;99.90;;;;;;5072760;28;19909;-83
2023/01/26 15:05:46;;;;;;;;;;;6.40;99.90;;;;;;5069742;28;19919;-81
2023/01/26 15:08:17;;;;;;;;;;;6.40;99.90;;;;;;5064621;28;19913;-83
2023/01/26 15:12:14;;;;;;;;;;;6.40;99.90;;;;;;5077138;28;19912;-86
2023/01/26 15:13:42;;;;;;;;;;;6.30;99.90;;;;;;5067788;28;20274;-70
2023/01/26 15:16:21;;;;;;;;;;;6.20;99.90;;;;;;5076181;28;19916;-69
2023/01/26 15:19:00;;;;;;;;;;;6.30;99.90;;;;;;5065652;28;19909;-80
2023/01/26 15:21:39;;;;;;;;;;;6.30;99.90;;;;;;5071279;28;19922;-82
2023/01/26 15:24:09;;;;;;;;;;;6.20;99.90;;;;;;5070399;28;19926;-84